Terminal Aerodrome Forecast
Issued by NWS Wilmington, NC

Home | Current Version | Previous Version | Text Only | Print | Product List | Glossary On
Versions: 1 2 3 4 5 6 7 8 9 10 11 12 13 14 15 16 17 18
000
FTUS42 KILM 230520
TAFLBT
TAF
KLBT 230520Z 2306/2406 VRB03KT P6SM SKC
     FM231300 07008KT P6SM FEW045 FEW150 SCT250
     FM232300 VRB03KT P6SM FEW150 SCT250=

USA.gov is the U.S. government's official web portal to all federal, state and local government web resources and services.